sensor_id;sensor_type;location;lat;lon;timestamp;P1;durP1;ratioP1;P2;durP2;ratioP2
23737;SDS011;12049;51.068;3.688;2022-12-18T00:01:15;86.70;;;48.53;;
23737;SDS011;12049;51.068;3.688;2022-12-18T00:03:48;85.53;;;49.75;;
23737;SDS011;12049;51.068;3.688;2022-12-18T00:06:14;86.22;;;50.83;;
23737;SDS011;12049;51.068;3.688;2022-12-18T00:08:41;83.88;;;49.15;;
23737;SDS011;12049;51.068;3.688;2022-12-18T00:11:08;85.88;;;49.33;;
23737;SDS011;12049;51.068;3.688;2022-12-18T00:13:36;84.57;;;50.13;;
23737;SDS011;12049;51.068;3.688;2022-12-18T00:16:03;86.82;;;50.40;;
23737;SDS011;12049;51.068;3.688;2022-12-18T00:18:31;83.13;;;50.10;;
23737;SDS011;12049;51.068;3.688;2022-12-18T00:21:01;87.25;;;50.28;;
23737;SDS011;12049;51.068;3.688;2022-12-18T00:23:29;84.07;;;48.85;;
23737;SDS011;12049;51.068;3.688;2022-12-18T00:26:03;85.97;;;48.72;;
23737;SDS011;12049;51.068;3.688;2022-12-18T00:28:30;86.50;;;48.65;;
23737;SDS011;12049;51.068;3.688;2022-12-18T00:31:00;82.25;;;47.40;;
23737;SDS011;12049;51.068;3.688;2022-12-18T00:33:33;81.45;;;46.65;;
23737;SDS011;12049;51.068;3.688;2022-12-18T00:36:00;85.70;;;47.40;;
23737;SDS011;12049;51.068;3.688;2022-12-18T00:38:29;82.93;;;47.17;;
23737;SDS011;12049;51.068;3.688;2022-12-18T00:40:55;84.28;;;46.42;;
23737;SDS011;12049;51.068;3.688;2022-12-18T00:43:21;78.32;;;45.67;;
23737;SDS011;12049;51.068;3.688;2022-12-18T00:45:46;85.60;;;47.10;;
23737;SDS011;12049;51.068;3.688;2022-12-18T00:48:12;76.68;;;43.58;;
23737;SDS011;12049;51.068;3.688;2022-12-18T00:50:37;79.40;;;45.28;;
23737;SDS011;12049;51.068;3.688;2022-12-18T00:53:03;80.53;;;45.35;;
23737;SDS011;12049;51.068;3.688;2022-12-18T00:55:29;78.95;;;44.95;;
23737;SDS011;12049;51.068;3.688;2022-12-18T00:57:54;76.45;;;42.60;;
23737;SDS011;12049;51.068;3.688;2022-12-18T01:00:20;72.82;;;42.90;;
23737;SDS011;12049;51.068;3.688;2022-12-18T01:02:46;74.18;;;43.92;;
23737;SDS011;12049;51.068;3.688;2022-12-18T01:05:12;82.18;;;46.05;;
23737;SDS011;12049;51.068;3.688;2022-12-18T01:07:39;78.85;;;42.90;;
23737;SDS011;12049;51.068;3.688;2022-12-18T01:10:05;78.18;;;43.30;;
23737;SDS011;12049;51.068;3.688;2022-12-18T01:12:32;80.93;;;43.65;;
23737;SDS011;12049;51.068;3.688;2022-12-18T01:14:58;72.25;;;41.42;;
23737;SDS011;12049;51.068;3.688;2022-12-18T01:17:23;77.05;;;41.92;;
23737;SDS011;12049;51.068;3.688;2022-12-18T01:19:49;76.72;;;43.25;;
23737;SDS011;12049;51.068;3.688;2022-12-18T01:22:15;75.72;;;41.70;;
23737;SDS011;12049;51.068;3.688;2022-12-18T01:24:40;72.75;;;39.83;;
23737;SDS011;12049;51.068;3.688;2022-12-18T01:27:06;75.43;;;39.88;;
23737;SDS011;12049;51.068;3.688;2022-12-18T01:29:32;75.80;;;40.38;;
23737;SDS011;12049;51.068;3.688;2022-12-18T01:31:57;80.68;;;41.65;;
23737;SDS011;12049;51.068;3.688;2022-12-18T01:34:23;78.82;;;40.08;;
23737;SDS011;12049;51.068;3.688;2022-12-18T01:36:49;73.70;;;39.05;;
23737;SDS011;12049;51.068;3.688;2022-12-18T01:39:17;70.32;;;38.88;;
23737;SDS011;12049;51.068;3.688;2022-12-18T01:41:43;72.63;;;37.97;;
23737;SDS011;12049;51.068;3.688;2022-12-18T01:52:36;72.93;;;39.35;;
23737;SDS011;12049;51.068;3.688;2022-12-18T01:55:03;68.18;;;38.10;;
23737;SDS011;12049;51.068;3.688;2022-12-18T01:57:31;72.40;;;38.38;;
23737;SDS011;12049;51.068;3.688;2022-12-18T02:00:00;70.03;;;36.33;;
23737;SDS011;12049;51.068;3.688;2022-12-18T02:02:29;55.20;;;29.38;;
23737;SDS011;12049;51.068;3.688;2022-12-18T02:04:55;66.55;;;37.20;;
23737;SDS011;12049;51.068;3.688;2022-12-18T02:11:03;68.15;;;36.58;;
23737;SDS011;12049;51.068;3.688;2022-12-18T02:13:05;70.28;;;37.05;;
23737;SDS011;12049;51.068;3.688;2022-12-18T02:16:05;63.10;;;34.15;;
23737;SDS011;12049;51.068;3.688;2022-12-18T02:18:59;64.13;;;35.15;;
23737;SDS011;12049;51.068;3.688;2022-12-18T02:24:05;65.18;;;35.00;;
23737;SDS011;12049;51.068;3.688;2022-12-18T02:26:48;67.03;;;36.00;;
23737;SDS011;12049;51.068;3.688;2022-12-18T02:29:22;61.58;;;33.75;;
23737;SDS011;12049;51.068;3.688;2022-12-18T02:31:57;64.28;;;34.47;;
23737;SDS011;12049;51.068;3.688;2022-12-18T02:34:26;63.70;;;34.05;;
23737;SDS011;12049;51.068;3.688;2022-12-18T02:36:55;60.35;;;33.25;;
23737;SDS011;12049;51.068;3.688;2022-12-18T02:39:23;65.10;;;34.67;;
23737;SDS011;12049;51.068;3.688;2022-12-18T02:41:51;62.65;;;32.47;;
23737;SDS011;12049;51.068;3.688;2022-12-18T02:44:17;62.60;;;33.50;;
23737;SDS011;12049;51.068;3.688;2022-12-18T02:46:45;62.08;;;33.90;;
23737;SDS011;12049;51.068;3.688;2022-12-18T02:52:11;55.15;;;31.48;;
23737;SDS011;12049;51.068;3.688;2022-12-18T02:55:11;59.50;;;33.33;;
23737;SDS011;12049;51.068;3.688;2022-12-18T02:57:46;63.33;;;32.55;;
23737;SDS011;12049;51.068;3.688;2022-12-18T03:08:36;59.30;;;31.85;;
23737;SDS011;12049;51.068;3.688;2022-12-18T03:11:05;55.35;;;31.02;;
23737;SDS011;12049;51.068;3.688;2022-12-18T03:13:40;56.90;;;31.48;;
23737;SDS011;12049;51.068;3.688;2022-12-18T03:16:15;64.22;;;33.60;;
23737;SDS011;12049;51.068;3.688;2022-12-18T03:18:54;63.03;;;33.58;;
23737;SDS011;12049;51.068;3.688;2022-12-18T03:21:30;57.72;;;31.05;;
23737;SDS011;12049;51.068;3.688;2022-12-18T03:24:01;55.50;;;30.73;;
23737;SDS011;12049;51.068;3.688;2022-12-18T03:26:31;59.13;;;30.52;;
23737;SDS011;12049;51.068;3.688;2022-12-18T03:29:02;55.10;;;30.23;;
23737;SDS011;12049;51.068;3.688;2022-12-18T03:33:58;51.15;;;28.65;;
23737;SDS011;12049;51.068;3.688;2022-12-18T03:36:27;55.17;;;30.42;;
23737;SDS011;12049;51.068;3.688;2022-12-18T03:38:53;52.03;;;29.42;;
23737;SDS011;12049;51.068;3.688;2022-12-18T03:41:38;52.50;;;28.75;;
23737;SDS011;12049;51.068;3.688;2022-12-18T03:44:18;48.28;;;27.70;;
23737;SDS011;12049;51.068;3.688;2022-12-18T03:49:35;52.25;;;29.00;;
23737;SDS011;12049;51.068;3.688;2022-12-18T03:52:06;53.15;;;29.60;;
23737;SDS011;12049;51.068;3.688;2022-12-18T03:54:36;49.88;;;27.80;;
23737;SDS011;12049;51.068;3.688;2022-12-18T03:57:07;50.88;;;27.55;;
23737;SDS011;12049;51.068;3.688;2022-12-18T03:59:38;54.05;;;28.50;;
23737;SDS011;12049;51.068;3.688;2022-12-18T04:02:06;52.35;;;28.92;;
23737;SDS011;12049;51.068;3.688;2022-12-18T04:04:34;50.05;;;27.17;;
23737;SDS011;12049;51.068;3.688;2022-12-18T04:07:02;51.78;;;26.67;;
23737;SDS011;12049;51.068;3.688;2022-12-18T04:09:30;51.80;;;28.25;;
23737;SDS011;12049;51.068;3.688;2022-12-18T04:11:57;51.10;;;28.48;;
23737;SDS011;12049;51.068;3.688;2022-12-18T04:14:23;50.92;;;26.70;;
23737;SDS011;12049;51.068;3.688;2022-12-18T04:16:49;49.75;;;26.60;;
23737;SDS011;12049;51.068;3.688;2022-12-18T04:19:14;47.67;;;26.60;;
23737;SDS011;12049;51.068;3.688;2022-12-18T04:21:40;52.05;;;27.73;;
23737;SDS011;12049;51.068;3.688;2022-12-18T04:24:05;50.97;;;26.45;;
23737;SDS011;12049;51.068;3.688;2022-12-18T04:26:31;52.40;;;27.40;;
23737;SDS011;12049;51.068;3.688;2022-12-18T04:29:00;47.28;;;26.33;;
23737;SDS011;12049;51.068;3.688;2022-12-18T04:31:25;51.85;;;26.58;;
23737;SDS011;12049;51.068;3.688;2022-12-18T04:33:51;48.58;;;26.55;;
23737;SDS011;12049;51.068;3.688;2022-12-18T04:36:17;45.25;;;25.98;;
23737;SDS011;12049;51.068;3.688;2022-12-18T04:38:43;50.30;;;27.48;;
23737;SDS011;12049;51.068;3.688;2022-12-18T04:41:08;47.22;;;25.20;;
23737;SDS011;12049;51.068;3.688;2022-12-18T04:43:34;50.10;;;26.42;;
23737;SDS011;12049;51.068;3.688;2022-12-18T04:46:06;52.58;;;27.17;;
23737;SDS011;12049;51.068;3.688;2022-12-18T04:50:58;50.22;;;25.80;;
23737;SDS011;12049;51.068;3.688;2022-12-18T04:53:24;49.85;;;25.55;;
23737;SDS011;12049;51.068;3.688;2022-12-18T04:55:50;43.95;;;25.25;;
23737;SDS011;12049;51.068;3.688;2022-12-18T04:58:15;47.40;;;25.98;;
23737;SDS011;12049;51.068;3.688;2022-12-18T05:00:41;45.95;;;25.23;;
23737;SDS011;12049;51.068;3.688;2022-12-18T05:03:08;49.95;;;25.88;;
23737;SDS011;12049;51.068;3.688;2022-12-18T05:05:36;48.85;;;25.52;;
23737;SDS011;12049;51.068;3.688;2022-12-18T05:08:02;43.70;;;24.67;;
23737;SDS011;12049;51.068;3.688;2022-12-18T05:10:28;44.83;;;24.50;;
23737;SDS011;12049;51.068;3.688;2022-12-18T05:12:53;43.85;;;24.63;;
23737;SDS011;12049;51.068;3.688;2022-12-18T05:15:31;44.83;;;25.27;;
23737;SDS011;12049;51.068;3.688;2022-12-18T05:20:24;41.85;;;23.60;;
23737;SDS011;12049;51.068;3.688;2022-12-18T05:22:50;45.50;;;25.05;;
23737;SDS011;12049;51.068;3.688;2022-12-18T05:25:16;47.13;;;25.50;;
23737;SDS011;12049;51.068;3.688;2022-12-18T05:27:42;43.90;;;24.27;;
23737;SDS011;12049;51.068;3.688;2022-12-18T05:30:09;45.67;;;24.25;;
23737;SDS011;12049;51.068;3.688;2022-12-18T05:32:35;42.58;;;23.77;;
23737;SDS011;12049;51.068;3.688;2022-12-18T05:35:00;44.72;;;24.88;;
23737;SDS011;12049;51.068;3.688;2022-12-18T05:37:26;44.13;;;24.42;;
23737;SDS011;12049;51.068;3.688;2022-12-18T05:39:52;44.88;;;24.98;;
23737;SDS011;12049;51.068;3.688;2022-12-18T05:42:17;42.65;;;24.15;;
23737;SDS011;12049;51.068;3.688;2022-12-18T05:44:43;44.58;;;23.63;;
23737;SDS011;12049;51.068;3.688;2022-12-18T05:47:09;41.53;;;25.20;;
23737;SDS011;12049;51.068;3.688;2022-12-18T05:49:35;45.60;;;24.45;;
23737;SDS011;12049;51.068;3.688;2022-12-18T05:52:00;38.95;;;22.35;;
23737;SDS011;12049;51.068;3.688;2022-12-18T05:54:29;44.58;;;24.23;;
23737;SDS011;12049;51.068;3.688;2022-12-18T05:56:58;41.85;;;23.45;;
23737;SDS011;12049;51.068;3.688;2022-12-18T05:59:23;43.35;;;23.55;;
23737;SDS011;12049;51.068;3.688;2022-12-18T06:01:49;39.97;;;22.30;;
23737;SDS011;12049;51.068;3.688;2022-12-18T06:04:15;41.25;;;22.00;;
23737;SDS011;12049;51.068;3.688;2022-12-18T06:06:40;43.90;;;22.65;;
23737;SDS011;12049;51.068;3.688;2022-12-18T06:09:06;40.05;;;22.33;;
23737;SDS011;12049;51.068;3.688;2022-12-18T06:11:34;40.90;;;22.23;;
23737;SDS011;12049;51.068;3.688;2022-12-18T06:14:02;38.50;;;22.42;;
23737;SDS011;12049;51.068;3.688;2022-12-18T06:16:29;38.30;;;22.48;;
23737;SDS011;12049;51.068;3.688;2022-12-18T06:18:58;38.15;;;21.92;;
23737;SDS011;12049;51.068;3.688;2022-12-18T06:21:25;37.45;;;21.42;;
23737;SDS011;12049;51.068;3.688;2022-12-18T06:23:50;39.30;;;22.38;;
23737;SDS011;12049;51.068;3.688;2022-12-18T06:26:16;39.60;;;23.33;;
23737;SDS011;12049;51.068;3.688;2022-12-18T06:28:42;39.35;;;21.90;;
23737;SDS011;12049;51.068;3.688;2022-12-18T06:31:07;38.90;;;21.73;;
23737;SDS011;12049;51.068;3.688;2022-12-18T06:33:34;34.78;;;20.02;;
23737;SDS011;12049;51.068;3.688;2022-12-18T06:36:01;36.45;;;21.15;;
23737;SDS011;12049;51.068;3.688;2022-12-18T06:38:35;37.08;;;22.25;;
23737;SDS011;12049;51.068;3.688;2022-12-18T06:41:08;34.72;;;19.95;;
23737;SDS011;12049;51.068;3.688;2022-12-18T06:43:35;37.45;;;20.83;;
23737;SDS011;12049;51.068;3.688;2022-12-18T06:46:02;34.55;;;19.55;;
23737;SDS011;12049;51.068;3.688;2022-12-18T06:48:28;31.92;;;19.27;;
23737;SDS011;12049;51.068;3.688;2022-12-18T06:50:54;28.42;;;17.48;;
23737;SDS011;12049;51.068;3.688;2022-12-18T06:53:20;33.60;;;19.38;;
23737;SDS011;12049;51.068;3.688;2022-12-18T06:55:46;32.78;;;19.50;;
23737;SDS011;12049;51.068;3.688;2022-12-18T06:58:11;33.20;;;19.00;;
23737;SDS011;12049;51.068;3.688;2022-12-18T07:00:37;30.98;;;18.45;;
23737;SDS011;12049;51.068;3.688;2022-12-18T07:03:03;30.38;;;17.67;;
23737;SDS011;12049;51.068;3.688;2022-12-18T07:05:29;32.08;;;17.88;;
23737;SDS011;12049;51.068;3.688;2022-12-18T07:07:54;32.75;;;19.05;;
23737;SDS011;12049;51.068;3.688;2022-12-18T07:10:20;28.52;;;17.77;;
23737;SDS011;12049;51.068;3.688;2022-12-18T07:12:46;31.80;;;18.48;;
23737;SDS011;12049;51.068;3.688;2022-12-18T07:15:12;30.20;;;18.33;;
23737;SDS011;12049;51.068;3.688;2022-12-18T07:17:37;34.67;;;18.42;;
23737;SDS011;12049;51.068;3.688;2022-12-18T07:20:03;28.80;;;18.30;;
23737;SDS011;12049;51.068;3.688;2022-12-18T07:22:29;30.52;;;17.75;;
23737;SDS011;12049;51.068;3.688;2022-12-18T07:24:55;31.77;;;17.08;;
23737;SDS011;12049;51.068;3.688;2022-12-18T07:27:20;33.92;;;17.55;;
23737;SDS011;12049;51.068;3.688;2022-12-18T07:29:47;29.63;;;17.50;;
23737;SDS011;12049;51.068;3.688;2022-12-18T07:32:12;30.98;;;17.35;;
23737;SDS011;12049;51.068;3.688;2022-12-18T07:34:38;30.38;;;17.75;;
23737;SDS011;12049;51.068;3.688;2022-12-18T07:37:04;31.90;;;17.65;;
23737;SDS011;12049;51.068;3.688;2022-12-18T07:39:29;27.23;;;16.55;;
23737;SDS011;12049;51.068;3.688;2022-12-18T07:41:56;27.77;;;16.38;;
23737;SDS011;12049;51.068;3.688;2022-12-18T07:44:40;29.75;;;16.38;;
23737;SDS011;12049;51.068;3.688;2022-12-18T07:47:05;29.98;;;17.13;;
23737;SDS011;12049;51.068;3.688;2022-12-18T07:49:34;28.23;;;17.17;;
23737;SDS011;12049;51.068;3.688;2022-12-18T07:52:00;27.90;;;16.75;;
23737;SDS011;12049;51.068;3.688;2022-12-18T07:54:29;28.90;;;17.50;;
23737;SDS011;12049;51.068;3.688;2022-12-18T07:56:55;30.27;;;17.05;;
23737;SDS011;12049;51.068;3.688;2022-12-18T07:59:21;30.77;;;17.55;;
23737;SDS011;12049;51.068;3.688;2022-12-18T08:01:46;29.85;;;17.33;;
23737;SDS011;12049;51.068;3.688;2022-12-18T08:04:12;29.25;;;16.50;;
23737;SDS011;12049;51.068;3.688;2022-12-18T08:06:37;30.02;;;17.40;;
23737;SDS011;12049;51.068;3.688;2022-12-18T08:09:03;27.88;;;16.55;;
23737;SDS011;12049;51.068;3.688;2022-12-18T08:11:29;27.45;;;17.02;;
23737;SDS011;12049;51.068;3.688;2022-12-18T08:13:55;27.67;;;16.48;;
23737;SDS011;12049;51.068;3.688;2022-12-18T08:16:21;29.42;;;16.85;;
23737;SDS011;12049;51.068;3.688;2022-12-18T08:18:48;27.98;;;15.27;;
23737;SDS011;12049;51.068;3.688;2022-12-18T08:21:18;26.13;;;16.05;;
23737;SDS011;12049;51.068;3.688;2022-12-18T08:26:12;28.83;;;16.17;;
23737;SDS011;12049;51.068;3.688;2022-12-18T08:28:39;26.95;;;14.93;;
23737;SDS011;12049;51.068;3.688;2022-12-18T08:31:08;27.02;;;17.00;;
23737;SDS011;12049;51.068;3.688;2022-12-18T08:33:33;25.38;;;15.60;;
23737;SDS011;12049;51.068;3.688;2022-12-18T08:36:00;26.40;;;15.82;;
23737;SDS011;12049;51.068;3.688;2022-12-18T08:38:26;27.52;;;17.02;;
23737;SDS011;12049;51.068;3.688;2022-12-18T08:41:05;26.27;;;16.10;;
23737;SDS011;12049;51.068;3.688;2022-12-18T08:43:32;26.08;;;15.27;;
23737;SDS011;12049;51.068;3.688;2022-12-18T08:46:21;23.17;;;14.82;;
23737;SDS011;12049;51.068;3.688;2022-12-18T08:48:47;26.15;;;15.75;;
23737;SDS011;12049;51.068;3.688;2022-12-18T08:51:15;26.60;;;15.32;;
23737;SDS011;12049;51.068;3.688;2022-12-18T08:53:42;24.38;;;15.35;;
23737;SDS011;12049;51.068;3.688;2022-12-18T08:56:09;26.02;;;14.77;;
23737;SDS011;12049;51.068;3.688;2022-12-18T08:58:42;25.90;;;14.95;;
23737;SDS011;12049;51.068;3.688;2022-12-18T09:01:10;25.52;;;15.18;;
23737;SDS011;12049;51.068;3.688;2022-12-18T09:03:37;26.70;;;16.13;;
23737;SDS011;12049;51.068;3.688;2022-12-18T09:06:03;24.83;;;15.45;;
23737;SDS011;12049;51.068;3.688;2022-12-18T09:08:29;24.17;;;14.63;;
23737;SDS011;12049;51.068;3.688;2022-12-18T09:10:55;26.95;;;14.95;;
23737;SDS011;12049;51.068;3.688;2022-12-18T09:13:21;23.02;;;14.68;;
23737;SDS011;12049;51.068;3.688;2022-12-18T09:15:48;25.45;;;15.77;;
23737;SDS011;12049;51.068;3.688;2022-12-18T09:18:18;25.50;;;16.40;;
23737;SDS011;12049;51.068;3.688;2022-12-18T09:20:45;25.55;;;15.95;;
23737;SDS011;12049;51.068;3.688;2022-12-18T09:23:16;26.63;;;16.25;;
23737;SDS011;12049;51.068;3.688;2022-12-18T09:25:42;26.80;;;16.73;;
23737;SDS011;12049;51.068;3.688;2022-12-18T09:28:12;25.75;;;15.95;;
23737;SDS011;12049;51.068;3.688;2022-12-18T09:30:41;26.75;;;15.95;;
23737;SDS011;12049;51.068;3.688;2022-12-18T09:33:13;23.73;;;15.02;;
23737;SDS011;12049;51.068;3.688;2022-12-18T09:35:40;26.65;;;16.20;;
23737;SDS011;12049;51.068;3.688;2022-12-18T09:38:07;27.83;;;15.60;;
23737;SDS011;12049;51.068;3.688;2022-12-18T09:40:36;26.23;;;16.05;;
23737;SDS011;12049;51.068;3.688;2022-12-18T09:43:09;26.45;;;16.23;;
23737;SDS011;12049;51.068;3.688;2022-12-18T09:45:51;24.13;;;14.83;;
23737;SDS011;12049;51.068;3.688;2022-12-18T09:48:20;22.85;;;14.90;;
23737;SDS011;12049;51.068;3.688;2022-12-18T09:50:50;24.77;;;14.93;;
23737;SDS011;12049;51.068;3.688;2022-12-18T09:53:22;25.92;;;15.48;;
23737;SDS011;12049;51.068;3.688;2022-12-18T09:55:52;23.75;;;14.73;;
23737;SDS011;12049;51.068;3.688;2022-12-18T10:00:54;23.63;;;14.63;;
23737;SDS011;12049;51.068;3.688;2022-12-18T10:03:20;24.17;;;14.95;;
23737;SDS011;12049;51.068;3.688;2022-12-18T10:22:18;25.35;;;15.98;;
23737;SDS011;12049;51.068;3.688;2022-12-18T10:27:27;26.67;;;16.45;;
23737;SDS011;12049;51.068;3.688;2022-12-18T10:29:54;26.30;;;16.08;;
23737;SDS011;12049;51.068;3.688;2022-12-18T10:32:24;24.23;;;15.20;;
23737;SDS011;12049;51.068;3.688;2022-12-18T10:34:52;22.83;;;15.02;;
23737;SDS011;12049;51.068;3.688;2022-12-18T10:37:24;25.58;;;16.88;;
23737;SDS011;12049;51.068;3.688;2022-12-18T10:40:04;27.23;;;16.67;;
23737;SDS011;12049;51.068;3.688;2022-12-18T10:42:39;22.70;;;15.60;;
23737;SDS011;12049;51.068;3.688;2022-12-18T10:45:14;27.52;;;16.50;;
23737;SDS011;12049;51.068;3.688;2022-12-18T10:47:48;24.35;;;15.95;;
23737;SDS011;12049;51.068;3.688;2022-12-18T10:52:58;31.15;;;16.55;;
23737;SDS011;12049;51.068;3.688;2022-12-18T10:55:27;23.25;;;15.15;;
23737;SDS011;12049;51.068;3.688;2022-12-18T11:06:26;26.00;;;15.60;;
23737;SDS011;12049;51.068;3.688;2022-12-18T11:11:31;25.52;;;15.23;;
23737;SDS011;12049;51.068;3.688;2022-12-18T11:16:37;28.63;;;16.63;;
23737;SDS011;12049;51.068;3.688;2022-12-18T11:21:56;27.90;;;18.02;;
23737;SDS011;12049;51.068;3.688;2022-12-18T11:24:32;26.85;;;16.73;;
23737;SDS011;12049;51.068;3.688;2022-12-18T11:27:06;26.05;;;15.70;;
23737;SDS011;12049;51.068;3.688;2022-12-18T11:29:43;26.65;;;17.08;;
23737;SDS011;12049;51.068;3.688;2022-12-18T11:35:15;25.30;;;15.98;;
23737;SDS011;12049;51.068;3.688;2022-12-18T11:37:58;24.60;;;14.68;;
23737;SDS011;12049;51.068;3.688;2022-12-18T11:40:38;23.17;;;15.35;;
23737;SDS011;12049;51.068;3.688;2022-12-18T11:43:09;23.50;;;15.55;;
23737;SDS011;12049;51.068;3.688;2022-12-18T11:46:10;25.27;;;15.15;;
23737;SDS011;12049;51.068;3.688;2022-12-18T11:49:46;23.65;;;14.85;;
23737;SDS011;12049;51.068;3.688;2022-12-18T11:51:59;23.65;;;15.07;;
23737;SDS011;12049;51.068;3.688;2022-12-18T11:54:25;23.35;;;15.05;;
23737;SDS011;12049;51.068;3.688;2022-12-18T11:56:58;23.98;;;15.63;;
23737;SDS011;12049;51.068;3.688;2022-12-18T12:16:02;27.65;;;16.40;;
23737;SDS011;12049;51.068;3.688;2022-12-18T12:23:59;28.65;;;17.25;;
23737;SDS011;12049;51.068;3.688;2022-12-18T12:29:34;25.05;;;16.58;;
23737;SDS011;12049;51.068;3.688;2022-12-18T12:35:06;30.60;;;18.42;;
23737;SDS011;12049;51.068;3.688;2022-12-18T12:40:49;28.85;;;18.33;;
23737;SDS011;12049;51.068;3.688;2022-12-18T12:46:06;31.48;;;19.17;;
23737;SDS011;12049;51.068;3.688;2022-12-18T12:51:04;29.23;;;18.98;;
23737;SDS011;12049;51.068;3.688;2022-12-18T12:53:41;30.35;;;18.27;;
23737;SDS011;12049;51.068;3.688;2022-12-18T12:56:07;30.45;;;20.13;;
23737;SDS011;12049;51.068;3.688;2022-12-18T12:58:43;31.92;;;19.65;;
23737;SDS011;12049;51.068;3.688;2022-12-18T13:12:57;33.10;;;20.10;;
23737;SDS011;12049;51.068;3.688;2022-12-18T13:20:39;34.35;;;21.45;;
23737;SDS011;12049;51.068;3.688;2022-12-18T13:23:19;35.03;;;22.03;;
23737;SDS011;12049;51.068;3.688;2022-12-18T13:25:49;38.08;;;22.90;;
23737;SDS011;12049;51.068;3.688;2022-12-18T13:31:57;36.88;;;22.52;;
23737;SDS011;12049;51.068;3.688;2022-12-18T13:36:38;38.63;;;23.38;;
23737;SDS011;12049;51.068;3.688;2022-12-18T13:41:36;39.53;;;23.52;;
23737;SDS011;12049;51.068;3.688;2022-12-18T13:46:47;38.40;;;22.55;;
23737;SDS011;12049;51.068;3.688;2022-12-18T13:52:03;40.05;;;22.92;;
23737;SDS011;12049;51.068;3.688;2022-12-18T13:54:49;36.13;;;22.67;;
23737;SDS011;12049;51.068;3.688;2022-12-18T13:59:53;40.42;;;22.98;;
23737;SDS011;12049;51.068;3.688;2022-12-18T14:02:26;38.05;;;23.08;;
23737;SDS011;12049;51.068;3.688;2022-12-18T14:04:53;41.65;;;24.10;;
23737;SDS011;12049;51.068;3.688;2022-12-18T14:07:23;40.45;;;23.33;;
23737;SDS011;12049;51.068;3.688;2022-12-18T14:12:29;42.30;;;23.85;;
23737;SDS011;12049;51.068;3.688;2022-12-18T14:20:30;42.50;;;24.48;;
23737;SDS011;12049;51.068;3.688;2022-12-18T14:22:57;41.67;;;24.23;;
23737;SDS011;12049;51.068;3.688;2022-12-18T14:25:28;41.30;;;23.80;;
23737;SDS011;12049;51.068;3.688;2022-12-18T14:28:08;39.60;;;23.63;;
23737;SDS011;12049;51.068;3.688;2022-12-18T14:30:44;49.25;;;25.48;;
23737;SDS011;12049;51.068;3.688;2022-12-18T14:33:11;40.40;;;23.83;;
23737;SDS011;12049;51.068;3.688;2022-12-18T14:35:40;40.80;;;25.02;;
23737;SDS011;12049;51.068;3.688;2022-12-18T14:40:47;40.08;;;23.33;;
23737;SDS011;12049;51.068;3.688;2022-12-18T14:43:16;42.78;;;24.30;;
23737;SDS011;12049;51.068;3.688;2022-12-18T14:45:42;41.63;;;25.23;;
23737;SDS011;12049;51.068;3.688;2022-12-18T14:48:15;40.30;;;23.77;;
23737;SDS011;12049;51.068;3.688;2022-12-18T14:50:53;40.05;;;23.45;;
23737;SDS011;12049;51.068;3.688;2022-12-18T14:53:28;44.28;;;24.08;;
23737;SDS011;12049;51.068;3.688;2022-12-18T14:56:13;40.50;;;23.85;;
23737;SDS011;12049;51.068;3.688;2022-12-18T14:58:55;39.72;;;22.65;;
23737;SDS011;12049;51.068;3.688;2022-12-18T15:01:32;42.90;;;24.08;;
23737;SDS011;12049;51.068;3.688;2022-12-18T15:04:03;42.53;;;24.13;;
23737;SDS011;12049;51.068;3.688;2022-12-18T15:06:37;39.90;;;23.98;;
23737;SDS011;12049;51.068;3.688;2022-12-18T15:12:03;41.00;;;23.67;;
23737;SDS011;12049;51.068;3.688;2022-12-18T15:14:35;41.42;;;22.85;;
23737;SDS011;12049;51.068;3.688;2022-12-18T15:17:06;42.80;;;23.65;;
23737;SDS011;12049;51.068;3.688;2022-12-18T15:19:49;42.35;;;23.42;;
23737;SDS011;12049;51.068;3.688;2022-12-18T15:24:54;42.63;;;25.08;;
23737;SDS011;12049;51.068;3.688;2022-12-18T15:32:33;43.47;;;24.35;;
23737;SDS011;12049;51.068;3.688;2022-12-18T15:37:34;44.78;;;25.15;;
23737;SDS011;12049;51.068;3.688;2022-12-18T15:40:03;44.72;;;24.25;;
23737;SDS011;12049;51.068;3.688;2022-12-18T15:42:29;44.13;;;24.92;;
23737;SDS011;12049;51.068;3.688;2022-12-18T15:45:14;46.17;;;25.30;;
23737;SDS011;12049;51.068;3.688;2022-12-18T15:47:40;41.10;;;24.42;;
23737;SDS011;12049;51.068;3.688;2022-12-18T15:50:09;43.42;;;24.75;;
23737;SDS011;12049;51.068;3.688;2022-12-18T15:52:41;43.42;;;23.98;;
23737;SDS011;12049;51.068;3.688;2022-12-18T15:55:42;44.15;;;24.67;;
23737;SDS011;12049;51.068;3.688;2022-12-18T15:58:24;44.47;;;23.90;;
23737;SDS011;12049;51.068;3.688;2022-12-18T16:00:49;41.85;;;24.38;;
23737;SDS011;12049;51.068;3.688;2022-12-18T16:03:15;43.55;;;24.27;;
23737;SDS011;12049;51.068;3.688;2022-12-18T16:05:44;44.72;;;23.90;;
23737;SDS011;12049;51.068;3.688;2022-12-18T16:08:09;41.53;;;23.50;;
23737;SDS011;12049;51.068;3.688;2022-12-18T16:10:35;46.85;;;24.13;;
23737;SDS011;12049;51.068;3.688;2022-12-18T16:13:01;43.80;;;23.23;;
23737;SDS011;12049;51.068;3.688;2022-12-18T16:15:26;42.00;;;23.95;;
23737;SDS011;12049;51.068;3.688;2022-12-18T16:17:52;43.20;;;23.30;;
23737;SDS011;12049;51.068;3.688;2022-12-18T16:20:20;44.40;;;24.10;;
23737;SDS011;12049;51.068;3.688;2022-12-18T16:22:47;46.50;;;25.67;;
23737;SDS011;12049;51.068;3.688;2022-12-18T16:25:19;43.40;;;24.08;;
23737;SDS011;12049;51.068;3.688;2022-12-18T16:27:46;40.63;;;23.20;;
23737;SDS011;12049;51.068;3.688;2022-12-18T16:30:13;39.65;;;23.13;;
23737;SDS011;12049;51.068;3.688;2022-12-18T16:32:40;42.28;;;23.67;;
23737;SDS011;12049;51.068;3.688;2022-12-18T16:35:08;44.60;;;24.17;;
23737;SDS011;12049;51.068;3.688;2022-12-18T16:37:37;44.50;;;24.47;;
23737;SDS011;12049;51.068;3.688;2022-12-18T16:40:04;43.50;;;23.85;;
23737;SDS011;12049;51.068;3.688;2022-12-18T16:42:38;44.92;;;24.08;;
23737;SDS011;12049;51.068;3.688;2022-12-18T16:45:06;44.63;;;23.88;;
23737;SDS011;12049;51.068;3.688;2022-12-18T16:47:33;40.60;;;22.48;;
23737;SDS011;12049;51.068;3.688;2022-12-18T16:49:59;49.10;;;23.25;;
23737;SDS011;12049;51.068;3.688;2022-12-18T16:52:25;47.28;;;24.30;;
23737;SDS011;12049;51.068;3.688;2022-12-18T16:55:06;46.28;;;23.98;;
23737;SDS011;12049;51.068;3.688;2022-12-18T16:57:32;44.78;;;23.90;;
23737;SDS011;12049;51.068;3.688;2022-12-18T17:00:01;42.95;;;22.83;;
23737;SDS011;12049;51.068;3.688;2022-12-18T17:02:27;47.10;;;24.58;;
23737;SDS011;12049;51.068;3.688;2022-12-18T17:04:56;42.13;;;24.27;;
23737;SDS011;12049;51.068;3.688;2022-12-18T17:07:22;43.00;;;24.52;;
23737;SDS011;12049;51.068;3.688;2022-12-18T17:09:48;45.47;;;23.15;;
23737;SDS011;12049;51.068;3.688;2022-12-18T17:12:15;42.88;;;23.80;;
23737;SDS011;12049;51.068;3.688;2022-12-18T17:14:44;43.65;;;24.83;;
23737;SDS011;12049;51.068;3.688;2022-12-18T17:17:10;43.20;;;24.80;;
23737;SDS011;12049;51.068;3.688;2022-12-18T17:19:36;41.15;;;23.73;;
23737;SDS011;12049;51.068;3.688;2022-12-18T17:22:01;44.30;;;23.77;;
23737;SDS011;12049;51.068;3.688;2022-12-18T17:24:31;47.95;;;24.15;;
23737;SDS011;12049;51.068;3.688;2022-12-18T17:26:57;41.58;;;23.67;;
23737;SDS011;12049;51.068;3.688;2022-12-18T17:29:23;43.40;;;23.60;;